createdAt,value
2018-04-13T00:03:53.679Z,15.00
2018-04-13T00:10:03.848Z,15.00
2018-04-13T00:16:14.468Z,14.90
2018-04-13T00:22:18.906Z,14.80
2018-04-13T00:28:23.292Z,14.60
2018-04-13T00:34:39.312Z,14.70
2018-04-13T00:40:44.558Z,14.70
2018-04-13T00:47:06.463Z,14.70
2018-04-13T00:53:28.742Z,14.80
2018-04-13T00:59:40.357Z,14.90
2018-04-13T01:05:45.231Z,14.80
2018-04-13T01:11:49.807Z,14.80
2018-04-13T01:17:54.296Z,14.80
2018-04-13T01:23:58.652Z,14.70
2018-04-13T01:30:03.063Z,14.60
2018-04-13T01:36:07.416Z,14.40
2018-04-13T01:42:17.635Z,14.20
2018-04-13T01:48:27.942Z,14.20
2018-04-13T01:54:38.040Z,14.20
2018-04-13T02:00:42.622Z,14.20
2018-04-13T02:06:47.790Z,14.20
2018-04-13T02:12:52.307Z,14.10
2018-04-13T02:19:02.752Z,14.10
2018-04-13T02:25:14.475Z,14.00
2018-04-13T02:31:18.959Z,13.90
2018-04-13T02:37:23.370Z,13.80
2018-04-13T02:43:41.369Z,13.80
2018-04-13T02:49:51.962Z,13.70
2018-04-13T02:56:07.993Z,13.60
2018-04-13T03:02:18.979Z,13.50
2018-04-13T03:08:29.455Z,13.50
2018-04-13T03:14:33.914Z,13.50
2018-04-13T03:20:38.311Z,13.60
2018-04-13T03:26:50.186Z,13.70
2018-04-13T03:33:00.443Z,13.70
2018-04-13T03:39:16.764Z,13.70
2018-04-13T03:45:39.632Z,13.60
2018-04-13T03:51:50.292Z,13.50
2018-04-13T03:57:54.800Z,13.50
2018-04-13T04:03:59.281Z,13.50
2018-04-13T04:10:03.721Z,13.60
2018-04-13T04:16:08.087Z,13.70
2018-04-13T04:22:30.431Z,13.70
2018-04-13T04:28:35.736Z,13.70
2018-04-13T04:34:40.772Z,13.60
2018-04-13T04:40:45.953Z,13.60
2018-04-13T04:46:50.325Z,13.50
2018-04-13T04:53:00.503Z,13.60
2018-04-13T04:59:10.793Z,13.50
2018-04-13T05:05:21.127Z,13.50
2018-04-13T05:11:32.060Z,13.40
2018-04-13T05:17:42.873Z,13.20
2018-04-13T05:23:59.612Z,13.20
2018-04-13T05:30:10.532Z,13.20
2018-04-13T05:36:20.908Z,13.30
2018-04-13T05:42:31.425Z,13.40
2018-04-13T05:48:36.081Z,13.60
2018-04-13T05:54:41.730Z,13.80
2018-04-13T06:00:46.246Z,13.80
2018-04-13T06:06:50.680Z,14.00
2018-04-13T06:12:55.053Z,13.90
2018-04-13T06:18:59.516Z,14.10
2018-04-13T06:25:10.052Z,14.30
2018-04-13T06:31:21.224Z,14.70
2018-04-13T06:37:25.588Z,14.70
2018-04-13T06:43:36.651Z,15.10
2018-04-13T06:49:53.263Z,15.20
2018-04-13T06:56:03.125Z,15.20
2018-04-13T07:02:08.255Z,15.30
2018-04-13T07:08:18.729Z,15.30
2018-04-13T07:14:34.640Z,15.50
2018-04-13T07:20:51.100Z,15.90
2018-04-13T07:26:55.468Z,15.90
2018-04-13T07:32:59.839Z,16.00
2018-04-13T07:39:09.655Z,15.90
2018-04-13T07:45:31.519Z,15.90
2018-04-13T07:51:35.933Z,16.20
2018-04-13T07:57:40.295Z,16.30
2018-04-13T08:03:44.728Z,16.50
2018-04-13T08:09:49.194Z,16.60
2018-04-13T08:16:05.515Z,16.70
2018-04-13T08:22:10.679Z,17.20
2018-04-13T08:28:20.873Z,17.20
2018-04-13T08:34:25.275Z,17.20
2018-04-13T08:40:35.470Z,16.80
2018-04-13T08:46:40.622Z,16.60
2018-04-13T08:52:51.560Z,16.10
2018-04-13T08:58:56.696Z,15.90
2018-04-13T09:05:01.071Z,15.90
2018-04-13T09:11:05.730Z,15.80
2018-04-13T09:17:16.162Z,15.70
2018-04-13T09:23:26.568Z,15.70
2018-04-13T09:29:30.926Z,15.80
2018-04-13T09:35:42.643Z,15.90
2018-04-13T09:41:47.876Z,15.90
2018-04-13T09:47:52.347Z,15.90
2018-04-13T09:53:56.717Z,16.10
2018-04-13T10:00:06.992Z,16.20
2018-04-13T10:06:17.242Z,16.40
2018-04-13T10:12:21.826Z,16.60
2018-04-13T10:18:26.289Z,17.00
2018-04-13T10:24:36.735Z,17.70
2018-04-13T10:30:41.109Z,18.10
2018-04-13T10:36:51.251Z,18.00
2018-04-13T10:43:01.420Z,17.60
2018-04-13T10:49:05.825Z,17.30
2018-04-13T10:55:10.833Z,17.10
2018-04-13T11:01:21.400Z,17.00
2018-04-13T11:07:37.218Z,16.70
2018-04-13T11:13:42.191Z,16.70
2018-04-13T11:19:52.363Z,16.90
2018-04-13T11:25:56.750Z,16.90
2018-04-13T11:32:01.543Z,17.00
2018-04-13T11:38:12.363Z,16.80
2018-04-13T11:44:22.614Z,16.70
2018-04-13T11:50:27.000Z,16.70
2018-04-13T11:56:37.389Z,16.60
2018-04-13T12:02:47.304Z,16.70
2018-04-13T12:08:51.816Z,16.80
2018-04-13T12:14:56.167Z,17.00
2018-04-13T12:21:01.399Z,17.10
2018-04-13T12:27:05.865Z,17.00
2018-04-13T12:33:10.269Z,17.00
2018-04-13T12:39:14.675Z,16.70
2018-04-13T12:45:19.040Z,16.30
2018-04-13T12:51:23.401Z,15.90
2018-04-13T12:57:27.840Z,15.60
2018-04-13T13:03:32.222Z,15.60
2018-04-13T13:09:36.595Z,15.60
2018-04-13T13:15:41.788Z,15.60
2018-04-13T13:21:46.187Z,15.90
2018-04-13T13:27:50.554Z,15.80
2018-04-13T13:33:54.915Z,15.70
2018-04-13T13:39:59.280Z,15.60
2018-04-13T13:46:04.443Z,15.40
2018-04-13T13:52:08.854Z,15.30
2018-04-13T13:58:13.235Z,15.10
2018-04-13T14:04:17.593Z,14.90
2018-04-13T14:10:22.736Z,14.50
2018-04-13T14:16:27.219Z,14.50
2018-04-13T14:22:31.640Z,14.50
2018-04-13T14:28:36.802Z,14.30
2018-04-13T14:34:42.124Z,14.30
2018-04-13T14:40:47.332Z,14.20
2018-04-13T14:46:51.743Z,14.20
2018-04-13T14:52:56.145Z,14.20
2018-04-13T14:59:01.289Z,14.20
2018-04-13T15:05:05.655Z,14.10
2018-04-13T15:11:10.231Z,14.00
2018-04-13T15:17:14.720Z,13.90
2018-04-13T15:23:19.177Z,14.00
2018-04-13T15:29:24.297Z,13.80
2018-04-13T15:35:28.694Z,13.80
2018-04-13T15:41:33.194Z,13.80
2018-04-13T15:47:37.578Z,13.70
2018-04-13T15:53:41.947Z,13.60
2018-04-13T15:59:46.305Z,13.60
2018-04-13T16:05:50.750Z,13.40
2018-04-13T16:11:55.227Z,13.40
2018-04-13T16:17:59.698Z,13.30
2018-04-13T16:24:04.056Z,13.30
2018-04-13T16:30:08.484Z,13.20
2018-04-13T16:36:13.875Z,13.10
2018-04-13T16:42:18.387Z,13.10
2018-04-13T16:48:22.831Z,13.10
2018-04-13T16:54:27.199Z,12.90
2018-04-13T17:00:31.576Z,12.90
2018-04-13T17:06:36.096Z,12.80
2018-04-13T17:12:41.210Z,12.70
2018-04-13T17:18:45.725Z,12.70
2018-04-13T17:24:50.518Z,12.60
2018-04-13T17:30:54.906Z,12.40
2018-04-13T17:36:59.362Z,12.30
2018-04-13T17:43:03.752Z,12.30
2018-04-13T17:49:08.184Z,12.20
2018-04-13T17:55:13.491Z,12.10
2018-04-13T18:01:17.851Z,12.10
2018-04-13T18:07:22.221Z,12.00
2018-04-13T18:13:26.589Z,12.00
2018-04-13T18:19:30.966Z,11.90
2018-04-13T18:25:35.319Z,11.90
2018-04-13T18:31:40.471Z,11.90
2018-04-13T18:37:44.829Z,11.90
2018-04-13T18:43:49.281Z,11.90
2018-04-13T18:49:54.408Z,11.90
2018-04-13T18:55:58.845Z,11.80
2018-04-13T19:08:05.768Z,11.90
2018-04-13T19:14:10.769Z,11.90
2018-04-13T19:20:15.562Z,11.80
2018-04-13T19:26:20.039Z,11.80
2018-04-13T19:32:24.386Z,11.80
2018-04-13T19:38:28.874Z,11.80
2018-04-13T19:44:33.249Z,11.80
2018-04-13T19:50:37.628Z,11.80
2018-04-13T19:56:42.112Z,11.80
2018-04-13T20:02:46.547Z,11.70
2018-04-13T20:08:51.689Z,11.80
2018-04-13T20:14:56.237Z,11.80
2018-04-13T20:21:00.618Z,11.90
2018-04-13T20:27:05.085Z,11.90
2018-04-13T20:33:09.649Z,11.90
2018-04-13T20:39:14.143Z,11.90
2018-04-13T20:45:19.287Z,11.90
2018-04-13T20:51:23.848Z,11.90
2018-04-13T20:57:28.243Z,12.00
2018-04-13T21:03:32.610Z,11.90
2018-04-13T21:09:36.998Z,12.00
2018-04-13T21:15:41.614Z,11.90
2018-04-13T21:21:46.006Z,11.90
2018-04-13T21:27:50.436Z,11.90
2018-04-13T21:33:54.803Z,11.90
2018-04-13T21:39:59.179Z,11.90
2018-04-13T21:46:03.572Z,11.90
2018-04-13T21:52:07.940Z,11.90
2018-04-13T21:58:12.344Z,11.90
2018-04-13T22:04:17.551Z,11.90
2018-04-13T22:10:22.017Z,11.90
2018-04-13T22:16:27.165Z,11.90
2018-04-13T22:22:31.528Z,11.90
2018-04-13T22:28:35.980Z,11.90
2018-04-13T22:34:40.799Z,11.90
2018-04-13T22:40:45.354Z,12.00
2018-04-13T22:46:49.711Z,12.00
2018-04-13T22:52:54.069Z,12.00
2018-04-13T22:58:59.202Z,12.10
2018-04-13T23:05:03.665Z,12.00
2018-04-13T23:11:08.391Z,12.10
2018-04-13T23:17:13.010Z,12.20
2018-04-13T23:23:17.511Z,12.20
2018-04-13T23:29:21.902Z,12.20
2018-04-13T23:35:26.327Z,12.20
2018-04-13T23:41:31.452Z,12.20
2018-04-13T23:47:36.024Z,12.10
2018-04-13T23:53:41.792Z,12.10
2018-04-13T23:59:46.203Z,12.10
